createdAt,value
2023-03-23T15:59:12.294Z,23.50
2023-03-23T16:01:58.125Z,23.67
2023-03-23T16:04:46.238Z,23.86
2023-03-23T16:07:33.514Z,23.78
2023-03-23T16:10:23.122Z,23.88
2023-03-23T16:13:10.558Z,24.09
2023-03-23T16:15:56.604Z,24.41
2023-03-23T16:18:42.553Z,24.48
2023-03-23T16:21:28.398Z,24.43
2023-03-23T16:24:14.205Z,24.33
2023-03-23T16:27:00.111Z,24.51
2023-03-23T16:30:02.227Z,24.72
2023-03-23T16:32:49.721Z,24.80
2023-03-23T16:35:37.957Z,24.98
2023-03-23T16:38:23.619Z,25.20
2023-03-23T16:41:09.718Z,25.17
2023-03-23T16:43:55.601Z,25.40
2023-03-23T16:46:41.468Z,25.47
2023-03-23T16:49:27.453Z,25.56
2023-03-23T16:52:13.173Z,25.60
2023-03-23T16:54:59.184Z,25.59
2023-03-23T16:57:45.655Z,25.79
2023-03-23T17:00:31.572Z,25.80
2023-03-23T17:03:19.678Z,25.92
2023-03-23T17:06:06.206Z,25.94
2023-03-23T17:08:52.295Z,25.90
2023-03-23T17:11:38.301Z,26.00
2023-03-23T17:14:24.258Z,26.23
2023-03-23T17:17:10.303Z,26.11
2023-03-23T17:19:56.599Z,26.13
2023-03-23T17:22:42.710Z,26.14
2023-03-23T17:25:30.758Z,26.16
2023-03-23T17:28:19.419Z,26.42
2023-03-23T17:31:06.636Z,26.68
2023-03-23T17:33:52.852Z,26.35
2023-03-23T17:36:39.149Z,26.54
2023-03-23T17:39:24.974Z,26.69
2023-03-23T17:42:10.907Z,26.65
2023-03-23T17:44:56.864Z,26.55
2023-03-23T17:47:42.846Z,26.84
2023-03-23T17:50:29.047Z,26.89
2023-03-23T17:53:15.499Z,26.87
2023-03-23T17:56:01.865Z,26.92
2023-03-23T17:58:47.611Z,27.16
2023-03-23T18:01:34.187Z,26.74
2023-03-23T18:04:20.466Z,27.08
2023-03-23T18:07:06.468Z,27.13
2023-03-23T18:09:52.238Z,27.16
2023-03-23T18:12:39.878Z,27.12
2023-03-23T18:15:28.428Z,27.14
2023-03-23T18:18:30.170Z,27.22
2023-03-23T18:21:16.651Z,27.50
2023-03-23T18:24:03.612Z,27.62
2023-03-23T18:26:49.690Z,27.57
2023-03-23T18:29:35.715Z,27.80
2023-03-23T18:32:21.919Z,27.74
2023-03-23T18:35:09.947Z,27.78
2023-03-23T18:37:55.833Z,27.80
2023-03-23T18:40:46.376Z,27.90
2023-03-23T18:43:32.481Z,27.78
2023-03-23T18:46:18.440Z,27.96
2023-03-23T18:49:04.496Z,27.99
2023-03-23T18:51:50.871Z,28.02
2023-03-23T18:54:38.313Z,28.13
2023-03-23T18:57:24.460Z,28.14
2023-03-23T19:00:11.118Z,28.17
2023-03-23T19:02:57.305Z,28.17
2023-03-23T19:05:44.618Z,28.25
2023-03-23T19:08:31.124Z,28.29
2023-03-23T19:11:17.234Z,28.51
2023-03-23T19:14:03.784Z,28.42
2023-03-23T19:16:50.309Z,28.21
2023-03-23T19:19:36.763Z,28.25
2023-03-23T19:22:23.181Z,28.61
2023-03-23T19:25:09.648Z,28.59
2023-03-23T19:30:49.949Z,28.52
2023-03-23T19:33:36.420Z,28.56
2023-03-23T19:36:24.571Z,28.85
2023-03-23T19:39:11.289Z,29.01
2023-03-23T19:41:57.295Z,29.05
2023-03-23T19:44:43.627Z,28.81
2023-03-23T19:47:30.059Z,28.74
2023-03-23T19:50:16.708Z,29.04
2023-03-23T19:53:02.758Z,29.20
2023-03-23T19:55:48.912Z,29.09
2023-03-23T19:58:35.460Z,28.98
2023-03-23T20:01:22.226Z,29.25
2023-03-23T20:04:09.577Z,29.05
2023-03-23T20:06:57.075Z,29.10
2023-03-23T20:09:42.940Z,29.19
2023-03-23T20:12:28.997Z,29.52
2023-03-23T20:15:15.475Z,29.66
2023-03-23T20:18:01.759Z,29.45
2023-03-23T20:20:51.674Z,29.34
2023-03-23T20:23:40.373Z,29.49
2023-03-23T20:26:30.962Z,29.67
2023-03-23T20:29:16.874Z,29.78
2023-03-23T20:32:02.874Z,29.89
2023-03-23T20:34:49.556Z,29.88
2023-03-23T20:37:39.883Z,29.93
2023-03-23T20:40:26.175Z,30.02
2023-03-23T20:43:13.958Z,29.78
2023-03-23T20:46:01.890Z,30.02
2023-03-23T20:48:49.840Z,29.99
2023-03-23T20:51:48.877Z,30.20
2023-03-23T20:54:35.755Z,30.00
2023-03-23T20:57:22.387Z,30.24
2023-03-23T21:00:10.322Z,30.22
2023-03-23T21:02:57.007Z,30.36
2023-03-23T21:05:45.126Z,30.20
2023-03-23T21:08:31.261Z,30.61
2023-03-23T21:11:19.982Z,30.33
2023-03-23T21:14:06.012Z,30.87
2023-03-23T21:16:52.301Z,31.17
2023-03-23T21:19:38.317Z,30.80
2023-03-23T21:22:24.741Z,30.90
2023-03-23T21:25:10.800Z,31.15
2023-03-23T21:27:57.088Z,30.97
2023-03-23T21:30:45.381Z,30.95
2023-03-23T21:33:32.311Z,31.28
2023-03-23T21:36:18.458Z,31.10
2023-03-23T21:39:06.170Z,30.70
2023-03-23T21:41:52.114Z,31.27
2023-03-23T21:44:39.192Z,31.12
2023-03-23T21:47:26.643Z,31.45
2023-03-23T21:50:14.108Z,31.49
2023-03-23T21:53:01.510Z,31.55
2023-03-23T21:55:51.805Z,31.54
2023-03-23T21:58:38.459Z,31.49
2023-03-23T22:01:24.663Z,31.38
2023-03-23T22:04:11.332Z,31.14
2023-03-23T22:06:57.210Z,31.54
2023-03-23T22:09:44.943Z,31.56
2023-03-23T22:12:30.701Z,31.55
2023-03-23T22:15:16.895Z,31.55
2023-03-23T22:18:03.322Z,31.89
2023-03-23T22:20:50.084Z,31.71
2023-03-23T22:23:36.820Z,31.71
2023-03-23T22:26:23.760Z,31.77
2023-03-23T22:29:11.304Z,31.91
2023-03-23T22:31:57.138Z,31.98
2023-03-23T22:34:43.476Z,32.13
2023-03-23T22:37:29.600Z,32.04
2023-03-23T22:40:15.679Z,32.24
2023-03-23T22:43:01.573Z,32.47
2023-03-23T22:45:53.042Z,32.74
2023-03-23T22:48:39.415Z,32.26
2023-03-23T22:51:25.779Z,32.23
2023-03-23T22:54:12.042Z,32.31
2023-03-23T22:56:58.247Z,32.85
2023-03-23T22:59:48.447Z,32.69
2023-03-23T23:02:34.735Z,32.48
2023-03-23T23:05:20.394Z,32.98
2023-03-23T23:08:06.413Z,32.73
2023-03-23T23:10:54.491Z,32.82
2023-03-23T23:13:41.364Z,32.94
2023-03-23T23:16:27.758Z,32.88
2023-03-23T23:19:14.790Z,32.85
2023-03-23T23:22:12.547Z,32.91
2023-03-23T23:25:04.580Z,32.79
2023-03-23T23:27:50.874Z,33.05
2023-03-23T23:30:36.965Z,33.06
2023-03-23T23:33:23.235Z,33.06
2023-03-23T23:36:09.921Z,33.18
2023-03-23T23:38:57.147Z,33.02
2023-03-23T23:41:43.195Z,33.19
2023-03-23T23:44:29.150Z,33.20
2023-03-23T23:47:14.887Z,33.78
2023-03-23T23:50:01.647Z,33.45
2023-03-23T23:52:47.397Z,32.97
2023-03-23T23:55:33.407Z,33.31
2023-03-23T23:58:20.882Z,33.88
